createdAt,value
2023-03-18T00:00:10.262Z,8.16
2023-03-18T00:02:42.370Z,8.19
2023-03-18T00:05:14.466Z,8.13
2023-03-18T00:07:47.758Z,8.15
2023-03-18T00:10:20.430Z,8.15
2023-03-18T00:12:53.712Z,8.13
2023-03-18T00:15:25.182Z,8.16
2023-03-18T00:18:00.051Z,8.19
2023-03-18T00:20:41.707Z,8.13
2023-03-18T00:23:13.785Z,8.11
2023-03-18T00:25:46.382Z,8.09
2023-03-18T00:28:18.957Z,8.06
2023-03-18T00:30:51.510Z,8.03
2023-03-18T00:33:23.594Z,7.99
2023-03-18T00:35:55.190Z,7.97
2023-03-18T00:38:27.176Z,7.96
2023-03-18T00:41:10.898Z,7.92
2023-03-18T00:43:54.800Z,7.94
2023-03-18T00:46:26.489Z,7.82
2023-03-18T00:48:58.583Z,7.79
2023-03-18T00:51:30.141Z,7.76
2023-03-18T00:54:01.914Z,7.72
2023-03-18T00:56:33.460Z,7.72
2023-03-18T00:59:06.397Z,7.65
2023-03-18T01:01:38.873Z,7.65
2023-03-18T01:04:10.792Z,7.58
2023-03-18T01:06:42.356Z,7.58
2023-03-18T01:09:14.752Z,7.54
2023-03-18T01:11:46.283Z,7.53
2023-03-18T01:14:18.142Z,7.54
2023-03-18T01:16:49.706Z,7.47
2023-03-18T01:19:22.105Z,7.48
2023-03-18T01:21:53.615Z,7.43
2023-03-18T01:24:25.474Z,7.41
2023-03-18T01:26:56.985Z,7.45
2023-03-18T01:29:29.027Z,7.45
2023-03-18T01:32:00.628Z,7.51
2023-03-18T01:34:32.452Z,7.47
2023-03-18T01:37:03.941Z,7.43
2023-03-18T01:39:36.036Z,7.49
2023-03-18T01:42:07.521Z,7.44
2023-03-18T01:44:39.299Z,7.45
2023-03-18T01:47:10.791Z,7.48
2023-03-18T01:49:42.460Z,7.48
2023-03-18T01:52:15.694Z,7.52
2023-03-18T01:54:47.842Z,7.44
2023-03-18T01:57:19.375Z,7.43
2023-03-18T01:59:51.147Z,7.47
2023-03-18T02:02:22.658Z,7.52
2023-03-18T02:04:54.902Z,7.52
2023-03-18T02:07:26.468Z,7.51
2023-03-18T02:09:57.987Z,7.53
2023-03-18T02:12:29.520Z,7.59
2023-03-18T02:15:01.057Z,7.59
2023-03-18T02:17:32.674Z,7.58
2023-03-18T02:20:04.655Z,7.63
2023-03-18T02:22:38.362Z,7.63
2023-03-18T02:25:10.166Z,7.62
2023-03-18T02:27:41.666Z,7.62
2023-03-18T02:30:13.361Z,7.64
2023-03-18T02:32:44.860Z,7.66
2023-03-18T02:35:16.717Z,7.72
2023-03-18T02:37:48.268Z,7.74
2023-03-18T02:40:20.062Z,7.70
2023-03-18T02:42:51.576Z,7.65
2023-03-18T02:45:24.091Z,7.70
2023-03-18T02:47:56.111Z,7.75
2023-03-18T02:50:28.458Z,7.72
2023-03-18T02:52:59.948Z,7.75
2023-03-18T02:55:31.792Z,7.77
2023-03-18T02:58:03.278Z,7.74
2023-03-18T03:00:35.139Z,7.74
2023-03-18T03:03:07.166Z,7.76
2023-03-18T03:05:38.922Z,7.70
2023-03-18T03:08:10.517Z,7.72
2023-03-18T03:10:42.422Z,7.68
2023-03-18T03:13:13.992Z,7.72
2023-03-18T03:15:45.505Z,7.69
2023-03-18T03:18:17.048Z,7.73
2023-03-18T03:20:48.864Z,7.73
2023-03-18T03:23:20.485Z,7.76
2023-03-18T03:25:52.338Z,7.77
2023-03-18T03:28:23.831Z,7.77
2023-03-18T03:30:55.756Z,7.78
2023-03-18T03:33:27.841Z,7.78
2023-03-18T03:35:59.370Z,7.72
2023-03-18T03:38:31.157Z,7.74
2023-03-18T03:41:02.794Z,7.76
2023-03-18T03:43:34.859Z,7.74
2023-03-18T03:46:06.443Z,7.69
2023-03-18T03:48:38.434Z,7.69
2023-03-18T03:51:09.930Z,7.67
2023-03-18T03:53:41.712Z,7.68
2023-03-18T03:56:13.216Z,7.68
2023-03-18T03:58:46.094Z,7.71
2023-03-18T04:01:17.580Z,7.68
2023-03-18T04:03:49.770Z,7.71
2023-03-18T04:06:21.505Z,7.70
2023-03-18T04:08:53.216Z,7.68
2023-03-18T04:11:25.513Z,7.64
2023-03-18T04:13:57.054Z,7.64
2023-03-18T04:16:28.692Z,7.65
2023-03-18T04:19:00.268Z,7.65
2023-03-18T04:21:31.783Z,7.62
2023-03-18T04:24:04.037Z,7.62
2023-03-18T04:26:35.533Z,7.64
2023-03-18T04:29:07.407Z,7.61
2023-03-18T04:31:38.943Z,7.61
2023-03-18T04:34:11.418Z,7.58
2023-03-18T04:36:42.954Z,7.59
2023-03-18T04:39:14.631Z,7.57
2023-03-18T04:41:46.504Z,7.53
2023-03-18T04:44:19.594Z,7.53
2023-03-18T04:46:51.780Z,7.51
2023-03-18T04:49:24.713Z,7.55
2023-03-18T04:51:56.283Z,7.52
2023-03-18T04:54:28.383Z,7.50
2023-03-18T04:56:59.997Z,7.47
2023-03-18T04:59:31.867Z,7.44
2023-03-18T05:02:04.733Z,7.39
2023-03-18T05:04:36.559Z,7.37
2023-03-18T05:07:08.567Z,7.33
2023-03-18T05:09:40.075Z,7.29
2023-03-18T05:12:11.556Z,7.28
2023-03-18T05:14:43.280Z,7.28
2023-03-18T05:17:17.571Z,7.25
2023-03-18T05:19:49.418Z,7.22
2023-03-18T05:22:21.944Z,7.22
2023-03-18T05:24:53.851Z,7.20
2023-03-18T05:27:27.523Z,7.19
2023-03-18T05:29:59.099Z,7.17
2023-03-18T05:32:32.166Z,7.17
2023-03-18T05:35:04.165Z,7.08
2023-03-18T05:37:35.900Z,7.11
2023-03-18T05:40:12.133Z,7.09
2023-03-18T05:42:55.504Z,7.12
2023-03-18T05:45:28.325Z,7.11
2023-03-18T05:47:59.825Z,7.15
2023-03-18T05:50:31.691Z,7.15
2023-03-18T05:53:03.354Z,7.22
2023-03-18T05:55:35.264Z,7.19
2023-03-18T05:58:07.138Z,7.28
2023-03-18T06:00:39.083Z,7.34
2023-03-18T06:03:10.699Z,7.36
2023-03-18T06:05:42.397Z,7.38
2023-03-18T06:08:14.684Z,7.45
2023-03-18T06:10:46.439Z,7.51
2023-03-18T06:13:17.935Z,7.49
2023-03-18T06:15:49.436Z,7.52
2023-03-18T06:18:20.938Z,7.59
2023-03-18T06:20:53.002Z,7.49
2023-03-18T06:23:24.681Z,7.57
2023-03-18T06:25:56.518Z,7.56
2023-03-18T06:28:28.016Z,7.47
2023-03-18T06:30:59.541Z,7.53
2023-03-18T06:33:31.075Z,7.49
2023-03-18T06:36:03.272Z,7.47
2023-03-18T06:38:34.775Z,7.51
2023-03-18T06:41:06.417Z,7.51
2023-03-18T06:43:38.159Z,7.57
2023-03-18T06:46:10.873Z,7.59
2023-03-18T06:48:42.438Z,7.62
2023-03-18T06:51:14.106Z,7.61
2023-03-18T06:53:45.614Z,7.74
2023-03-18T06:56:17.291Z,7.70
2023-03-18T06:58:48.800Z,7.77
2023-03-18T07:01:21.298Z,7.82
2023-03-18T07:03:52.864Z,7.96
2023-03-18T07:06:24.727Z,8.03
2023-03-18T07:08:56.250Z,8.15
2023-03-18T07:11:27.940Z,8.16
2023-03-18T07:13:59.483Z,8.41
2023-03-18T07:16:31.617Z,8.58
2023-03-18T07:19:04.142Z,8.57
2023-03-18T07:21:37.384Z,8.57
2023-03-18T07:24:08.887Z,8.43
2023-03-18T07:26:41.730Z,8.57
2023-03-18T07:29:13.224Z,8.75
2023-03-18T07:31:44.972Z,8.87
2023-03-18T07:34:17.762Z,8.92
2023-03-18T07:36:49.629Z,9.02
2023-03-18T07:39:21.183Z,9.04
2023-03-18T07:41:52.779Z,9.18
2023-03-18T07:44:25.160Z,9.21
2023-03-18T07:46:56.888Z,9.42
2023-03-18T07:49:28.387Z,9.56
2023-03-18T07:51:59.907Z,9.73
2023-03-18T07:54:31.397Z,9.89
2023-03-18T07:57:04.693Z,9.93
2023-03-18T07:59:37.586Z,10.02
2023-03-18T08:02:09.267Z,10.28
2023-03-18T08:04:43.548Z,10.23
2023-03-18T08:07:15.086Z,10.69
2023-03-18T08:09:46.847Z,11.06
2023-03-18T08:12:19.250Z,11.62
2023-03-18T08:14:51.179Z,11.41
2023-03-18T08:17:23.230Z,11.55
2023-03-18T08:19:55.049Z,11.92
2023-03-18T08:22:26.607Z,11.93
2023-03-18T08:24:58.388Z,11.89
2023-03-18T08:27:30.447Z,12.14
2023-03-18T08:30:03.823Z,12.17
2023-03-18T08:32:35.677Z,12.92
2023-03-18T08:35:07.531Z,13.06
2023-03-18T08:37:39.086Z,13.68
2023-03-18T08:40:11.056Z,13.67
2023-03-18T08:42:42.588Z,13.61
2023-03-18T08:45:14.505Z,13.66
2023-03-18T08:47:46.004Z,14.26
2023-03-18T08:50:17.828Z,13.97
2023-03-18T08:52:49.373Z,14.28
2023-03-18T08:55:21.938Z,13.85
2023-03-18T08:57:53.528Z,13.37
2023-03-18T09:00:25.514Z,13.10
2023-03-18T09:02:57.118Z,13.33
2023-03-18T09:05:29.034Z,13.32
2023-03-18T09:08:00.576Z,13.55
2023-03-18T09:10:32.425Z,13.25
2023-03-18T09:13:05.469Z,13.46
2023-03-18T09:15:37.368Z,13.85
2023-03-18T09:18:12.075Z,14.30
2023-03-18T09:20:45.501Z,14.61
2023-03-18T09:23:18.309Z,14.82
2023-03-18T09:25:50.275Z,14.52
2023-03-18T09:28:21.808Z,14.54
2023-03-18T09:30:53.394Z,14.91
2023-03-18T09:33:25.512Z,14.92
2023-03-18T09:35:57.121Z,14.52
2023-03-18T09:38:28.640Z,15.06
2023-03-18T09:41:00.535Z,14.88
2023-03-18T09:43:32.204Z,15.48
2023-03-18T09:46:04.187Z,15.32
2023-03-18T09:48:35.734Z,15.29
2023-03-18T09:51:07.566Z,15.29
2023-03-18T09:53:39.079Z,15.37
2023-03-18T09:56:10.947Z,16.40
2023-03-18T09:58:42.902Z,16.98
2023-03-18T10:01:14.780Z,17.08
2023-03-18T10:03:46.796Z,16.30
2023-03-18T10:06:19.402Z,16.48
2023-03-18T10:08:51.041Z,16.54
2023-03-18T10:11:22.990Z,17.34
2023-03-18T10:13:54.920Z,17.63
2023-03-18T10:16:26.873Z,16.45
2023-03-18T10:18:58.471Z,16.54
2023-03-18T10:21:30.318Z,17.43
2023-03-18T10:24:02.098Z,18.26
2023-03-18T10:26:34.172Z,18.62
2023-03-18T10:29:05.775Z,18.74
2023-03-18T10:31:37.738Z,18.16
2023-03-18T10:34:09.598Z,17.66
2023-03-18T10:36:41.801Z,16.92
2023-03-18T10:39:13.547Z,17.58
2023-03-18T10:41:45.418Z,17.58
2023-03-18T10:44:17.200Z,17.47
2023-03-18T10:46:49.259Z,17.45
2023-03-18T10:49:20.831Z,16.68
2023-03-18T10:51:52.733Z,18.25
2023-03-18T10:54:24.249Z,18.44
2023-03-18T10:56:55.828Z,17.98
2023-03-18T10:59:27.343Z,17.21
2023-03-18T11:01:58.969Z,17.39
2023-03-18T11:04:30.627Z,17.28
2023-03-18T11:07:02.958Z,17.23
2023-03-18T11:09:36.133Z,17.69
2023-03-18T11:12:08.065Z,17.77
2023-03-18T11:14:40.304Z,17.44
2023-03-18T11:17:12.234Z,17.49
2023-03-18T11:19:45.294Z,17.27
2023-03-18T11:22:17.192Z,17.31
2023-03-18T11:24:48.960Z,18.16
2023-03-18T11:27:20.793Z,16.61
2023-03-18T11:29:52.278Z,18.18
2023-03-18T11:32:24.033Z,17.96
2023-03-18T11:34:57.277Z,17.12
2023-03-18T11:37:29.524Z,17.74
2023-03-18T11:40:01.037Z,17.66
2023-03-18T11:42:33.037Z,17.54
2023-03-18T11:45:05.127Z,17.63
2023-03-18T11:47:37.843Z,17.66
2023-03-18T11:50:09.353Z,17.80
2023-03-18T11:52:41.189Z,17.45
2023-03-18T11:55:12.703Z,18.21
2023-03-18T11:57:45.487Z,18.81
2023-03-18T12:00:17.486Z,18.84
2023-03-18T12:02:49.921Z,18.29
2023-03-18T12:05:21.527Z,18.11
2023-03-18T12:07:53.366Z,18.64
2023-03-18T12:10:25.892Z,18.34
2023-03-18T12:12:57.944Z,18.54
2023-03-18T12:15:29.445Z,18.95
2023-03-18T12:18:01.239Z,19.52
2023-03-18T12:20:33.046Z,19.50
2023-03-18T12:23:05.011Z,19.10
2023-03-18T12:25:37.016Z,18.85
2023-03-18T12:28:08.980Z,19.45
2023-03-18T12:30:40.940Z,18.92
2023-03-18T12:33:14.617Z,18.97
2023-03-18T12:35:46.573Z,18.82
2023-03-18T12:38:18.647Z,18.53
2023-03-18T12:40:50.456Z,18.89
2023-03-18T12:43:22.424Z,19.27
2023-03-18T12:45:53.979Z,19.23
2023-03-18T12:48:42.728Z,18.87
2023-03-18T12:51:15.579Z,19.25
2023-03-18T12:53:47.555Z,19.13
2023-03-18T12:56:19.171Z,19.18
2023-03-18T12:58:51.262Z,18.32
2023-03-18T13:01:24.260Z,18.04
2023-03-18T13:03:55.889Z,18.02
2023-03-18T13:06:27.457Z,18.24
2023-03-18T13:08:59.933Z,17.75
2023-03-18T13:11:31.455Z,17.99
2023-03-18T13:14:03.281Z,18.69
2023-03-18T13:16:34.840Z,19.57
2023-03-18T13:19:06.833Z,19.84
2023-03-18T13:21:38.918Z,20.29
2023-03-18T13:24:10.948Z,20.63
2023-03-18T13:26:42.494Z,20.39
2023-03-18T13:29:14.487Z,20.38
2023-03-18T13:31:46.088Z,21.24
2023-03-18T13:34:17.984Z,21.26
2023-03-18T13:36:49.568Z,21.20
2023-03-18T13:39:21.655Z,21.97
2023-03-18T13:41:53.159Z,22.51
2023-03-18T13:44:25.283Z,22.28
2023-03-18T13:46:56.827Z,21.37
2023-03-18T13:49:28.674Z,21.48
2023-03-18T13:52:01.064Z,21.93
2023-03-18T13:54:32.947Z,22.43
2023-03-18T13:57:04.465Z,22.58
2023-03-18T13:59:36.349Z,21.50
2023-03-18T14:02:07.917Z,21.40
2023-03-18T14:04:40.874Z,21.54
2023-03-18T14:07:12.581Z,20.95
2023-03-18T14:09:44.351Z,21.66
2023-03-18T14:12:16.880Z,21.63
2023-03-18T14:14:48.986Z,22.37
2023-03-18T14:17:20.532Z,22.51
2023-03-18T14:19:52.674Z,21.61
2023-03-18T14:22:24.240Z,21.72
2023-03-18T14:24:55.984Z,21.80
2023-03-18T14:27:28.330Z,21.95
2023-03-18T14:30:00.172Z,21.50
2023-03-18T14:32:31.895Z,22.32
2023-03-18T14:35:03.803Z,21.43
2023-03-18T14:37:35.473Z,21.35
2023-03-18T14:40:09.268Z,20.52
2023-03-18T14:42:41.994Z,20.06
2023-03-18T14:45:14.029Z,20.04
2023-03-18T14:47:46.138Z,20.66
2023-03-18T14:50:18.526Z,21.53
2023-03-18T14:52:50.053Z,20.45
2023-03-18T14:55:22.004Z,20.10
2023-03-18T14:57:53.778Z,19.83
2023-03-18T15:00:26.456Z,19.28
2023-03-18T15:03:00.647Z,18.96
2023-03-18T15:05:33.031Z,20.08
2023-03-18T15:08:04.737Z,20.59
2023-03-18T15:10:36.629Z,20.48
2023-03-18T15:13:08.455Z,20.68
2023-03-18T15:15:40.372Z,19.85
2023-03-18T15:18:11.916Z,20.09
2023-03-18T15:20:44.046Z,20.37
2023-03-18T15:23:16.046Z,19.41
2023-03-18T15:25:48.649Z,19.15
2023-03-18T15:28:20.222Z,19.14
2023-03-18T15:30:52.558Z,18.93
2023-03-18T15:33:24.173Z,18.86
2023-03-18T15:35:55.939Z,18.60
2023-03-18T15:38:27.513Z,18.57
2023-03-18T15:41:00.239Z,18.44
2023-03-18T15:43:32.621Z,18.16
2023-03-18T15:46:05.203Z,18.04
2023-03-18T15:48:36.860Z,17.92
2023-03-18T15:51:11.072Z,17.71
2023-03-18T15:53:44.421Z,17.75
2023-03-18T15:56:16.578Z,17.85
2023-03-18T15:58:48.085Z,17.84
2023-03-18T16:01:20.032Z,17.90
2023-03-18T16:03:51.634Z,17.86
2023-03-18T16:06:23.808Z,17.76
2023-03-18T16:08:55.770Z,17.78
2023-03-18T16:11:27.646Z,17.90
2023-03-18T16:13:59.718Z,17.91
2023-03-18T16:16:33.118Z,17.93
2023-03-18T16:19:07.001Z,17.93
2023-03-18T16:21:38.988Z,17.77
2023-03-18T16:24:10.622Z,17.22
2023-03-18T16:26:42.933Z,17.60
2023-03-18T16:29:15.551Z,17.53
2023-03-18T16:31:47.469Z,17.49
2023-03-18T16:34:21.731Z,17.31
2023-03-18T16:36:53.861Z,17.15
2023-03-18T16:39:27.083Z,17.04
2023-03-18T16:41:58.881Z,16.92
2023-03-18T16:44:30.762Z,16.80
2023-03-18T16:47:02.431Z,16.01
2023-03-18T16:49:35.916Z,16.73
2023-03-18T16:52:08.708Z,16.68
2023-03-18T16:54:40.770Z,16.58
2023-03-18T16:57:12.996Z,16.40
2023-03-18T16:59:44.714Z,16.32
2023-03-18T17:02:16.339Z,16.26
2023-03-18T17:04:48.139Z,16.13
2023-03-18T17:07:19.672Z,16.07
2023-03-18T17:09:52.588Z,15.94
2023-03-18T17:12:24.133Z,15.89
2023-03-18T17:14:55.809Z,15.80
2023-03-18T17:17:30.439Z,15.73
2023-03-18T17:20:02.278Z,15.67
2023-03-18T17:22:33.883Z,15.64
2023-03-18T17:25:05.446Z,15.58
2023-03-18T17:27:36.956Z,15.53
2023-03-18T17:30:09.917Z,15.48
2023-03-18T17:32:41.479Z,15.45
2023-03-18T17:35:13.377Z,15.39
2023-03-18T17:37:45.439Z,15.36
2023-03-18T17:40:17.580Z,15.27
2023-03-18T17:42:49.117Z,15.18
2023-03-18T17:45:21.337Z,15.12
2023-03-18T17:47:52.927Z,15.01
2023-03-18T17:50:24.795Z,14.92
2023-03-18T17:52:56.505Z,14.88
2023-03-18T17:55:28.315Z,14.85
2023-03-18T17:57:59.844Z,14.79
2023-03-18T18:00:33.148Z,14.75
2023-03-18T18:03:04.674Z,14.71
2023-03-18T18:05:36.550Z,14.68
2023-03-18T18:08:08.066Z,14.62
2023-03-18T18:10:39.947Z,14.53
2023-03-18T18:13:11.477Z,14.50
2023-03-18T18:15:43.800Z,14.47
2023-03-18T18:18:20.201Z,14.35
2023-03-18T18:20:52.004Z,14.26
2023-03-18T18:23:23.498Z,14.24
2023-03-18T18:25:55.048Z,14.19
2023-03-18T18:28:27.061Z,14.19
2023-03-18T18:30:58.768Z,14.14
2023-03-18T18:33:30.431Z,14.08
2023-03-18T18:36:02.272Z,14.03
2023-03-18T18:38:33.844Z,13.91
2023-03-18T18:41:06.131Z,13.90
2023-03-18T18:43:37.684Z,13.92
2023-03-18T18:46:09.608Z,13.92
2023-03-18T18:48:41.128Z,13.90
2023-03-18T18:51:12.925Z,13.87
2023-03-18T18:53:44.432Z,13.77
2023-03-18T18:56:16.152Z,13.73
2023-03-18T18:58:47.674Z,13.64
2023-03-18T19:01:19.228Z,13.58
2023-03-18T19:03:50.978Z,13.60
2023-03-18T19:06:22.884Z,13.62
2023-03-18T19:08:54.461Z,12.81
2023-03-18T19:11:26.325Z,13.62
2023-03-18T19:13:58.685Z,13.59
2023-03-18T19:16:30.787Z,13.61
2023-03-18T19:19:03.078Z,13.69
2023-03-18T19:21:34.952Z,13.76
2023-03-18T19:24:06.538Z,13.76
2023-03-18T19:26:38.452Z,13.71
2023-03-18T19:29:09.980Z,13.72
2023-03-18T19:31:41.617Z,13.70
2023-03-18T19:34:13.184Z,13.67
2023-03-18T19:36:44.782Z,13.62
2023-03-18T19:39:16.474Z,13.55
2023-03-18T19:41:48.018Z,13.55
2023-03-18T19:44:19.576Z,13.55
2023-03-18T19:46:51.181Z,13.53
2023-03-18T19:49:23.062Z,13.51
2023-03-18T19:51:54.603Z,13.45
2023-03-18T19:54:27.286Z,13.53
2023-03-18T19:57:01.124Z,13.50
2023-03-18T19:59:38.640Z,13.47
2023-03-18T20:02:10.897Z,13.42
2023-03-18T20:04:42.871Z,13.49
2023-03-18T20:07:14.486Z,13.38
2023-03-18T20:09:46.225Z,13.36
2023-03-18T20:12:17.764Z,13.35
2023-03-18T20:14:49.289Z,13.32
2023-03-18T20:17:20.810Z,13.28
2023-03-18T20:19:52.754Z,13.26
2023-03-18T20:22:24.290Z,13.22
2023-03-18T20:24:56.118Z,13.24
2023-03-18T20:27:27.788Z,13.15
2023-03-18T20:29:59.383Z,13.13
2023-03-18T20:32:31.053Z,13.11
2023-03-18T20:35:03.758Z,13.08
2023-03-18T20:37:36.178Z,13.02
2023-03-18T20:40:08.459Z,12.97
2023-03-18T20:42:39.999Z,12.90
2023-03-18T20:45:11.647Z,12.90
2023-03-18T20:47:43.896Z,12.85
2023-03-18T20:50:15.829Z,12.82
2023-03-18T20:52:47.505Z,12.80
2023-03-18T20:55:19.027Z,12.77
2023-03-18T20:57:50.698Z,12.71
2023-03-18T21:00:23.760Z,12.68
2023-03-18T21:02:55.333Z,12.66
2023-03-18T21:05:27.668Z,12.64
2023-03-18T21:07:59.183Z,12.65
2023-03-18T21:10:31.182Z,12.64
2023-03-18T21:13:02.808Z,12.59
2023-03-18T21:15:34.697Z,12.56
2023-03-18T21:18:06.378Z,12.53
2023-03-18T21:20:37.901Z,12.43
2023-03-18T21:23:09.425Z,12.40
2023-03-18T21:25:40.981Z,12.39
2023-03-18T21:28:12.554Z,12.34
2023-03-18T21:30:44.141Z,12.33
2023-03-18T21:33:15.694Z,12.28
2023-03-18T21:35:47.728Z,12.20
2023-03-18T21:38:19.293Z,12.11
2023-03-18T21:40:51.904Z,11.95
2023-03-18T21:43:23.454Z,11.87
2023-03-18T21:45:55.112Z,11.80
2023-03-18T21:48:26.672Z,11.72
2023-03-18T21:50:58.247Z,11.64
2023-03-18T21:53:29.751Z,11.59
2023-03-18T21:56:01.534Z,11.49
2023-03-18T21:58:33.059Z,11.41
2023-03-18T22:01:05.079Z,11.42
2023-03-18T22:03:36.669Z,11.40
2023-03-18T22:06:08.481Z,11.34
2023-03-18T22:08:40.060Z,11.30
2023-03-18T22:11:11.612Z,11.31
2023-03-18T22:13:43.197Z,11.24
2023-03-18T22:16:14.829Z,11.19
2023-03-18T22:18:47.359Z,11.13
2023-03-18T22:21:19.194Z,11.09
2023-03-18T22:23:50.805Z,11.02
2023-03-18T22:26:22.347Z,10.93
2023-03-18T22:28:54.119Z,10.92
2023-03-18T22:31:25.721Z,10.88
2023-03-18T22:33:57.297Z,10.87
2023-03-18T22:36:29.593Z,10.86
2023-03-18T22:39:01.116Z,10.84
2023-03-18T22:41:32.622Z,10.78
2023-03-18T22:44:04.199Z,10.78
2023-03-18T22:46:36.164Z,10.76
2023-03-18T22:49:08.590Z,10.63
2023-03-18T22:51:42.075Z,10.58
2023-03-18T22:54:13.871Z,10.51
2023-03-18T22:56:45.512Z,10.44
2023-03-18T22:59:17.233Z,10.41
2023-03-18T23:01:48.781Z,10.33
2023-03-18T23:04:20.677Z,10.32
2023-03-18T23:06:52.391Z,10.31
2023-03-18T23:09:24.230Z,10.25
2023-03-18T23:11:55.743Z,10.23
2023-03-18T23:14:27.638Z,10.19
2023-03-18T23:16:59.175Z,10.17
2023-03-18T23:19:30.934Z,10.14
2023-03-18T23:22:02.533Z,10.06
2023-03-18T23:24:34.457Z,9.99
2023-03-18T23:27:05.989Z,9.90
2023-03-18T23:29:37.742Z,9.85
2023-03-18T23:32:09.302Z,9.82
2023-03-18T23:34:41.290Z,9.75
2023-03-18T23:37:12.805Z,9.68
2023-03-18T23:39:46.434Z,9.58
2023-03-18T23:42:18.007Z,9.52
2023-03-18T23:44:49.932Z,9.38
2023-03-18T23:47:21.574Z,9.28
2023-03-18T23:49:53.627Z,9.28
2023-03-18T23:52:25.167Z,9.24
2023-03-18T23:54:56.687Z,9.24
2023-03-18T23:57:28.208Z,9.23
2023-03-18T23:59:59.739Z,9.21
